sensor_id;sensor_type;location;lat;lon;timestamp;P1;durP1;ratioP1;P2;durP2;ratioP2
58842;SDS011;44614;54.356;10.100;2023-02-28T00:00:45;6.30;;;2.65;;
58842;SDS011;44614;54.356;10.100;2023-02-28T00:03:10;4.15;;;2.40;;
58842;SDS011;44614;54.356;10.100;2023-02-28T00:05:35;7.38;;;2.83;;
58842;SDS011;44614;54.356;10.100;2023-02-28T00:08:01;5.70;;;2.90;;
58842;SDS011;44614;54.356;10.100;2023-02-28T00:10:27;5.07;;;2.85;;
58842;SDS011;44614;54.356;10.100;2023-02-28T00:12:55;4.85;;;2.67;;
58842;SDS011;44614;54.356;10.100;2023-02-28T00:15:23;6.38;;;3.15;;
58842;SDS011;44614;54.356;10.100;2023-02-28T00:17:49;5.93;;;2.67;;
58842;SDS011;44614;54.356;10.100;2023-02-28T00:22:42;7.97;;;3.20;;
58842;SDS011;44614;54.356;10.100;2023-02-28T00:25:09;7.07;;;3.53;;
58842;SDS011;44614;54.356;10.100;2023-02-28T00:27:37;12.32;;;2.92;;
58842;SDS011;44614;54.356;10.100;2023-02-28T00:30:03;5.97;;;3.22;;
58842;SDS011;44614;54.356;10.100;2023-02-28T00:34:56;6.15;;;3.17;;
58842;SDS011;44614;54.356;10.100;2023-02-28T00:37:21;7.15;;;2.63;;
58842;SDS011;44614;54.356;10.100;2023-02-28T00:39:46;5.72;;;3.33;;
58842;SDS011;44614;54.356;10.100;2023-02-28T00:42:12;5.97;;;3.13;;
58842;SDS011;44614;54.356;10.100;2023-02-28T00:44:37;9.57;;;3.42;;
58842;SDS011;44614;54.356;10.100;2023-02-28T00:47:02;3.13;;;1.97;;
58842;SDS011;44614;54.356;10.100;2023-02-28T00:49:28;6.13;;;2.80;;
58842;SDS011;44614;54.356;10.100;2023-02-28T00:51:54;7.57;;;3.55;;
58842;SDS011;44614;54.356;10.100;2023-02-28T00:54:20;6.38;;;3.08;;
58842;SDS011;44614;54.356;10.100;2023-02-28T00:56:46;5.43;;;2.43;;
58842;SDS011;44614;54.356;10.100;2023-02-28T00:59:13;3.30;;;2.80;;
58842;SDS011;44614;54.356;10.100;2023-02-28T01:01:40;8.50;;;2.90;;
58842;SDS011;44614;54.356;10.100;2023-02-28T01:04:05;7.22;;;3.20;;
58842;SDS011;44614;54.356;10.100;2023-02-28T01:06:31;5.65;;;2.95;;
58842;SDS011;44614;54.356;10.100;2023-02-28T01:08:56;3.55;;;2.33;;
58842;SDS011;44614;54.356;10.100;2023-02-28T01:11:22;6.90;;;3.10;;
58842;SDS011;44614;54.356;10.100;2023-02-28T01:13:48;5.68;;;3.35;;
58842;SDS011;44614;54.356;10.100;2023-02-28T01:16:13;8.27;;;3.50;;
58842;SDS011;44614;54.356;10.100;2023-02-28T01:18:38;7.60;;;3.80;;
58842;SDS011;44614;54.356;10.100;2023-02-28T01:21:08;8.88;;;3.40;;
58842;SDS011;44614;54.356;10.100;2023-02-28T01:23:35;8.05;;;3.30;;
58842;SDS011;44614;54.356;10.100;2023-02-28T01:26:07;7.00;;;3.20;;
58842;SDS011;44614;54.356;10.100;2023-02-28T01:28:35;11.55;;;3.80;;
58842;SDS011;44614;54.356;10.100;2023-02-28T01:31:00;9.88;;;3.90;;
58842;SDS011;44614;54.356;10.100;2023-02-28T01:33:26;6.53;;;3.88;;
58842;SDS011;44614;54.356;10.100;2023-02-28T01:35:58;5.80;;;3.15;;
58842;SDS011;44614;54.356;10.100;2023-02-28T01:38:25;5.03;;;2.78;;
58842;SDS011;44614;54.356;10.100;2023-02-28T01:40:50;6.30;;;2.88;;
58842;SDS011;44614;54.356;10.100;2023-02-28T01:43:26;8.13;;;3.15;;
58842;SDS011;44614;54.356;10.100;2023-02-28T01:45:53;6.50;;;3.25;;
58842;SDS011;44614;54.356;10.100;2023-02-28T01:48:21;9.38;;;4.35;;
58842;SDS011;44614;54.356;10.100;2023-02-28T01:51:00;5.30;;;2.78;;
58842;SDS011;44614;54.356;10.100;2023-02-28T01:53:34;7.70;;;3.80;;
58842;SDS011;44614;54.356;10.100;2023-02-28T01:56:04;6.32;;;3.92;;
58842;SDS011;44614;54.356;10.100;2023-02-28T01:58:33;8.05;;;2.58;;
58842;SDS011;44614;54.356;10.100;2023-02-28T02:01:00;6.03;;;4.22;;
58842;SDS011;44614;54.356;10.100;2023-02-28T02:03:27;4.80;;;2.60;;
58842;SDS011;44614;54.356;10.100;2023-02-28T02:05:54;6.10;;;3.63;;
58842;SDS011;44614;54.356;10.100;2023-02-28T02:08:21;6.10;;;2.93;;
58842;SDS011;44614;54.356;10.100;2023-02-28T02:10:51;5.80;;;2.55;;
58842;SDS011;44614;54.356;10.100;2023-02-28T02:13:23;6.70;;;2.70;;
58842;SDS011;44614;54.356;10.100;2023-02-28T02:22:21;4.25;;;3.03;;
58842;SDS011;44614;54.356;10.100;2023-02-28T02:30:58;7.15;;;3.47;;
58842;SDS011;44614;54.356;10.100;2023-02-28T02:41:51;5.32;;;3.30;;
58842;SDS011;44614;54.356;10.100;2023-02-28T02:44:26;7.90;;;2.97;;
58842;SDS011;44614;54.356;10.100;2023-02-28T02:47:01;4.82;;;2.58;;
58842;SDS011;44614;54.356;10.100;2023-02-28T02:49:32;7.43;;;2.63;;
58842;SDS011;44614;54.356;10.100;2023-02-28T02:54:30;8.65;;;2.95;;
58842;SDS011;44614;54.356;10.100;2023-02-28T02:57:01;8.90;;;2.60;;
58842;SDS011;44614;54.356;10.100;2023-02-28T02:59:30;5.15;;;2.97;;
58842;SDS011;44614;54.356;10.100;2023-02-28T03:02:00;4.60;;;2.53;;
58842;SDS011;44614;54.356;10.100;2023-02-28T03:04:31;8.30;;;3.13;;
58842;SDS011;44614;54.356;10.100;2023-02-28T03:06:59;6.80;;;3.45;;
58842;SDS011;44614;54.356;10.100;2023-02-28T03:09:25;8.10;;;2.85;;
58842;SDS011;44614;54.356;10.100;2023-02-28T03:11:52;8.95;;;3.80;;
58842;SDS011;44614;54.356;10.100;2023-02-28T03:14:25;4.40;;;2.50;;
58842;SDS011;44614;54.356;10.100;2023-02-28T03:22:22;7.80;;;2.88;;
58842;SDS011;44614;54.356;10.100;2023-02-28T03:30:03;5.30;;;2.67;;
58842;SDS011;44614;54.356;10.100;2023-02-28T03:32:42;7.82;;;2.17;;
58842;SDS011;44614;54.356;10.100;2023-02-28T03:35:22;9.73;;;2.92;;
58842;SDS011;44614;54.356;10.100;2023-02-28T03:37:52;4.63;;;2.60;;
58842;SDS011;44614;54.356;10.100;2023-02-28T03:40:23;3.65;;;2.75;;
58842;SDS011;44614;54.356;10.100;2023-02-28T03:42:54;5.82;;;2.70;;
58842;SDS011;44614;54.356;10.100;2023-02-28T03:45:28;7.45;;;3.25;;
58842;SDS011;44614;54.356;10.100;2023-02-28T03:48:01;7.32;;;3.05;;
58842;SDS011;44614;54.356;10.100;2023-02-28T03:50:34;7.75;;;3.35;;
58842;SDS011;44614;54.356;10.100;2023-02-28T03:53:14;8.70;;;3.60;;
58842;SDS011;44614;54.356;10.100;2023-02-28T03:55:45;6.60;;;3.33;;
58842;SDS011;44614;54.356;10.100;2023-02-28T04:01:32;6.25;;;2.47;;
58842;SDS011;44614;54.356;10.100;2023-02-28T04:04:02;5.95;;;3.25;;
58842;SDS011;44614;54.356;10.100;2023-02-28T04:06:27;6.85;;;3.05;;
58842;SDS011;44614;54.356;10.100;2023-02-28T04:08:56;4.68;;;3.13;;
58842;SDS011;44614;54.356;10.100;2023-02-28T04:14:08;5.72;;;2.88;;
58842;SDS011;44614;54.356;10.100;2023-02-28T04:16:35;6.00;;;3.33;;
58842;SDS011;44614;54.356;10.100;2023-02-28T04:19:03;5.30;;;3.25;;
58842;SDS011;44614;54.356;10.100;2023-02-28T04:22:03;4.40;;;2.08;;
58842;SDS011;44614;54.356;10.100;2023-02-28T04:24:22;5.65;;;2.38;;
58842;SDS011;44614;54.356;10.100;2023-02-28T04:26:53;4.35;;;2.70;;
58842;SDS011;44614;54.356;10.100;2023-02-28T04:29:30;6.75;;;3.30;;
58842;SDS011;44614;54.356;10.100;2023-02-28T04:32:00;4.20;;;2.50;;
58842;SDS011;44614;54.356;10.100;2023-02-28T04:34:26;3.85;;;2.60;;
58842;SDS011;44614;54.356;10.100;2023-02-28T04:36:53;4.30;;;2.60;;
58842;SDS011;44614;54.356;10.100;2023-02-28T04:39:19;3.17;;;1.90;;
58842;SDS011;44614;54.356;10.100;2023-02-28T04:41:46;7.07;;;3.17;;
58842;SDS011;44614;54.356;10.100;2023-02-28T04:44:11;5.57;;;2.58;;
58842;SDS011;44614;54.356;10.100;2023-02-28T04:46:36;6.93;;;3.30;;
58842;SDS011;44614;54.356;10.100;2023-02-28T04:49:02;5.65;;;3.03;;
58842;SDS011;44614;54.356;10.100;2023-02-28T04:51:27;6.35;;;2.83;;
58842;SDS011;44614;54.356;10.100;2023-02-28T04:53:53;5.55;;;2.78;;
58842;SDS011;44614;54.356;10.100;2023-02-28T04:56:18;7.30;;;3.40;;
58842;SDS011;44614;54.356;10.100;2023-02-28T04:58:44;4.40;;;2.88;;
58842;SDS011;44614;54.356;10.100;2023-02-28T05:03:56;5.25;;;2.63;;
58842;SDS011;44614;54.356;10.100;2023-02-28T05:06:24;5.95;;;2.45;;
58842;SDS011;44614;54.356;10.100;2023-02-28T05:08:51;6.95;;;4.03;;
58842;SDS011;44614;54.356;10.100;2023-02-28T05:11:18;7.30;;;2.78;;
58842;SDS011;44614;54.356;10.100;2023-02-28T05:13:46;6.30;;;2.55;;
58842;SDS011;44614;54.356;10.100;2023-02-28T05:16:11;4.03;;;2.50;;
58842;SDS011;44614;54.356;10.100;2023-02-28T05:18:37;6.45;;;3.05;;
58842;SDS011;44614;54.356;10.100;2023-02-28T05:21:03;4.70;;;2.72;;
58842;SDS011;44614;54.356;10.100;2023-02-28T05:23:28;8.20;;;4.07;;
58842;SDS011;44614;54.356;10.100;2023-02-28T05:25:54;6.45;;;3.35;;
58842;SDS011;44614;54.356;10.100;2023-02-28T05:28:19;6.05;;;3.30;;
58842;SDS011;44614;54.356;10.100;2023-02-28T05:30:45;6.25;;;3.25;;
58842;SDS011;44614;54.356;10.100;2023-02-28T05:33:11;8.82;;;3.85;;
58842;SDS011;44614;54.356;10.100;2023-02-28T05:35:41;6.37;;;3.43;;
58842;SDS011;44614;54.356;10.100;2023-02-28T05:38:07;5.43;;;3.50;;
58842;SDS011;44614;54.356;10.100;2023-02-28T05:40:33;7.55;;;2.75;;
58842;SDS011;44614;54.356;10.100;2023-02-28T05:42:59;4.65;;;2.80;;
58842;SDS011;44614;54.356;10.100;2023-02-28T05:45:24;8.32;;;3.45;;
58842;SDS011;44614;54.356;10.100;2023-02-28T05:47:53;8.45;;;2.80;;
58842;SDS011;44614;54.356;10.100;2023-02-28T05:50:19;6.55;;;3.42;;
58842;SDS011;44614;54.356;10.100;2023-02-28T05:52:44;3.97;;;2.45;;
58842;SDS011;44614;54.356;10.100;2023-02-28T05:55:14;9.05;;;3.33;;
58842;SDS011;44614;54.356;10.100;2023-02-28T05:57:39;5.75;;;3.40;;
58842;SDS011;44614;54.356;10.100;2023-02-28T06:00:05;11.57;;;3.83;;
58842;SDS011;44614;54.356;10.100;2023-02-28T06:02:31;7.00;;;3.40;;
58842;SDS011;44614;54.356;10.100;2023-02-28T06:04:56;6.32;;;3.03;;
58842;SDS011;44614;54.356;10.100;2023-02-28T06:07:22;7.13;;;3.17;;
58842;SDS011;44614;54.356;10.100;2023-02-28T06:09:47;10.55;;;3.72;;
58842;SDS011;44614;54.356;10.100;2023-02-28T06:12:13;6.50;;;3.00;;
58842;SDS011;44614;54.356;10.100;2023-02-28T06:14:38;9.50;;;3.40;;
58842;SDS011;44614;54.356;10.100;2023-02-28T06:17:03;6.05;;;3.65;;
58842;SDS011;44614;54.356;10.100;2023-02-28T06:19:29;11.93;;;4.90;;
58842;SDS011;44614;54.356;10.100;2023-02-28T06:21:55;6.65;;;3.85;;
58842;SDS011;44614;54.356;10.100;2023-02-28T06:24:22;5.22;;;3.95;;
58842;SDS011;44614;54.356;10.100;2023-02-28T06:26:48;8.80;;;4.40;;
58842;SDS011;44614;54.356;10.100;2023-02-28T06:29:14;7.05;;;4.25;;
58842;SDS011;44614;54.356;10.100;2023-02-28T06:31:44;11.23;;;3.78;;
58842;SDS011;44614;54.356;10.100;2023-02-28T06:34:10;8.95;;;3.85;;
58842;SDS011;44614;54.356;10.100;2023-02-28T06:36:37;8.33;;;3.90;;
58842;SDS011;44614;54.356;10.100;2023-02-28T06:39:03;7.33;;;3.37;;
58842;SDS011;44614;54.356;10.100;2023-02-28T06:41:28;6.95;;;3.72;;
58842;SDS011;44614;54.356;10.100;2023-02-28T06:43:54;8.23;;;4.53;;
58842;SDS011;44614;54.356;10.100;2023-02-28T06:46:19;8.98;;;4.40;;
58842;SDS011;44614;54.356;10.100;2023-02-28T06:48:45;7.75;;;3.60;;
58842;SDS011;44614;54.356;10.100;2023-02-28T06:51:13;7.35;;;4.03;;
58842;SDS011;44614;54.356;10.100;2023-02-28T06:53:41;7.68;;;3.90;;
58842;SDS011;44614;54.356;10.100;2023-02-28T06:56:07;11.02;;;5.38;;
58842;SDS011;44614;54.356;10.100;2023-02-28T06:58:34;15.23;;;5.07;;
58842;SDS011;44614;54.356;10.100;2023-02-28T07:01:00;12.43;;;5.93;;
58842;SDS011;44614;54.356;10.100;2023-02-28T07:03:25;10.82;;;4.15;;
58842;SDS011;44614;54.356;10.100;2023-02-28T07:05:51;11.05;;;4.95;;
58842;SDS011;44614;54.356;10.100;2023-02-28T07:08:16;9.43;;;5.37;;
58842;SDS011;44614;54.356;10.100;2023-02-28T07:10:42;11.60;;;5.45;;
58842;SDS011;44614;54.356;10.100;2023-02-28T07:13:08;11.43;;;5.85;;
58842;SDS011;44614;54.356;10.100;2023-02-28T07:15:33;11.48;;;5.25;;
58842;SDS011;44614;54.356;10.100;2023-02-28T07:18:00;12.60;;;6.78;;
58842;SDS011;44614;54.356;10.100;2023-02-28T07:20:25;15.48;;;5.72;;
58842;SDS011;44614;54.356;10.100;2023-02-28T07:22:51;9.23;;;5.53;;
58842;SDS011;44614;54.356;10.100;2023-02-28T07:25:24;14.02;;;5.55;;
58842;SDS011;44614;54.356;10.100;2023-02-28T07:27:51;11.43;;;5.72;;
58842;SDS011;44614;54.356;10.100;2023-02-28T07:30:17;9.05;;;6.13;;
58842;SDS011;44614;54.356;10.100;2023-02-28T07:32:42;11.27;;;6.63;;
58842;SDS011;44614;54.356;10.100;2023-02-28T07:35:08;8.82;;;5.75;;
58842;SDS011;44614;54.356;10.100;2023-02-28T07:37:33;10.90;;;6.13;;
58842;SDS011;44614;54.356;10.100;2023-02-28T07:40:05;10.98;;;5.75;;
58842;SDS011;44614;54.356;10.100;2023-02-28T07:42:33;12.80;;;5.80;;
58842;SDS011;44614;54.356;10.100;2023-02-28T07:44:59;10.60;;;6.80;;
58842;SDS011;44614;54.356;10.100;2023-02-28T07:47:24;11.87;;;7.80;;
58842;SDS011;44614;54.356;10.100;2023-02-28T07:49:50;10.95;;;6.15;;
58842;SDS011;44614;54.356;10.100;2023-02-28T07:52:15;12.27;;;7.13;;
58842;SDS011;44614;54.356;10.100;2023-02-28T07:54:41;11.75;;;5.40;;
58842;SDS011;44614;54.356;10.100;2023-02-28T07:57:06;9.57;;;6.32;;
58842;SDS011;44614;54.356;10.100;2023-02-28T07:59:31;11.03;;;6.37;;
58842;SDS011;44614;54.356;10.100;2023-02-28T08:01:57;9.77;;;6.05;;
58842;SDS011;44614;54.356;10.100;2023-02-28T08:04:24;10.35;;;5.18;;
58842;SDS011;44614;54.356;10.100;2023-02-28T08:06:50;11.35;;;5.55;;
58842;SDS011;44614;54.356;10.100;2023-02-28T08:09:17;11.77;;;7.18;;
58842;SDS011;44614;54.356;10.100;2023-02-28T08:11:42;10.57;;;7.25;;
58842;SDS011;44614;54.356;10.100;2023-02-28T08:14:07;12.60;;;7.53;;
58842;SDS011;44614;54.356;10.100;2023-02-28T08:16:33;9.43;;;4.97;;
58842;SDS011;44614;54.356;10.100;2023-02-28T08:18:58;15.57;;;7.55;;
58842;SDS011;44614;54.356;10.100;2023-02-28T08:21:23;14.57;;;7.28;;
58842;SDS011;44614;54.356;10.100;2023-02-28T08:23:49;14.40;;;6.20;;
58842;SDS011;44614;54.356;10.100;2023-02-28T08:26:16;21.40;;;7.40;;
58842;SDS011;44614;54.356;10.100;2023-02-28T08:31:09;8.98;;;5.63;;
58842;SDS011;44614;54.356;10.100;2023-02-28T08:33:36;14.40;;;7.03;;
58842;SDS011;44614;54.356;10.100;2023-02-28T08:36:03;13.75;;;6.80;;
58842;SDS011;44614;54.356;10.100;2023-02-28T08:38:29;12.20;;;6.82;;
58842;SDS011;44614;54.356;10.100;2023-02-28T08:40:58;13.20;;;6.57;;
58842;SDS011;44614;54.356;10.100;2023-02-28T08:43:25;12.43;;;6.13;;
58842;SDS011;44614;54.356;10.100;2023-02-28T08:45:54;14.95;;;5.22;;
58842;SDS011;44614;54.356;10.100;2023-02-28T08:48:21;8.48;;;5.03;;
58842;SDS011;44614;54.356;10.100;2023-02-28T08:53:26;11.27;;;4.50;;
58842;SDS011;44614;54.356;10.100;2023-02-28T08:56:34;11.32;;;4.95;;
58842;SDS011;44614;54.356;10.100;2023-02-28T08:58:41;12.18;;;4.38;;
58842;SDS011;44614;54.356;10.100;2023-02-28T09:01:09;14.23;;;4.20;;
58842;SDS011;44614;54.356;10.100;2023-02-28T09:03:36;9.00;;;4.35;;
58842;SDS011;44614;54.356;10.100;2023-02-28T09:06:02;11.13;;;4.53;;
58842;SDS011;44614;54.356;10.100;2023-02-28T09:08:28;6.65;;;3.72;;
58842;SDS011;44614;54.356;10.100;2023-02-28T09:13:22;9.43;;;3.75;;
58842;SDS011;44614;54.356;10.100;2023-02-28T09:15:48;4.53;;;2.63;;
58842;SDS011;44614;54.356;10.100;2023-02-28T09:18:14;7.80;;;2.90;;
58842;SDS011;44614;54.356;10.100;2023-02-28T09:20:40;8.07;;;2.78;;
58842;SDS011;44614;54.356;10.100;2023-02-28T09:23:07;5.63;;;3.10;;
58842;SDS011;44614;54.356;10.100;2023-02-28T09:25:33;5.95;;;2.97;;
58842;SDS011;44614;54.356;10.100;2023-02-28T09:27:59;6.35;;;2.88;;
58842;SDS011;44614;54.356;10.100;2023-02-28T09:30:24;5.93;;;2.78;;
58842;SDS011;44614;54.356;10.100;2023-02-28T09:32:50;6.85;;;3.28;;
58842;SDS011;44614;54.356;10.100;2023-02-28T09:35:18;6.20;;;2.83;;
58842;SDS011;44614;54.356;10.100;2023-02-28T09:37:46;9.25;;;3.40;;
58842;SDS011;44614;54.356;10.100;2023-02-28T09:40:12;6.90;;;2.57;;
58842;SDS011;44614;54.356;10.100;2023-02-28T09:42:39;8.70;;;3.55;;
58842;SDS011;44614;54.356;10.100;2023-02-28T09:45:06;9.77;;;3.63;;
58842;SDS011;44614;54.356;10.100;2023-02-28T09:47:43;4.72;;;2.13;;
58842;SDS011;44614;54.356;10.100;2023-02-28T09:50:16;10.07;;;2.83;;
58842;SDS011;44614;54.356;10.100;2023-02-28T09:52:48;7.30;;;1.90;;
58842;SDS011;44614;54.356;10.100;2023-02-28T09:57:40;4.60;;;2.10;;
58842;SDS011;44614;54.356;10.100;2023-02-28T10:00:19;5.60;;;2.63;;
58842;SDS011;44614;54.356;10.100;2023-02-28T10:05:24;6.03;;;2.00;;
58842;SDS011;44614;54.356;10.100;2023-02-28T10:07:58;10.48;;;1.75;;
58842;SDS011;44614;54.356;10.100;2023-02-28T10:10:49;3.92;;;2.40;;
58842;SDS011;44614;54.356;10.100;2023-02-28T10:13:52;4.00;;;1.08;;
58842;SDS011;44614;54.356;10.100;2023-02-28T10:16:28;5.72;;;1.63;;
58842;SDS011;44614;54.356;10.100;2023-02-28T10:21:56;7.75;;;1.73;;
58842;SDS011;44614;54.356;10.100;2023-02-28T10:24:45;6.90;;;1.55;;
58842;SDS011;44614;54.356;10.100;2023-02-28T10:29:44;1.92;;;1.45;;
58842;SDS011;44614;54.356;10.100;2023-02-28T10:32:17;4.97;;;1.75;;
58842;SDS011;44614;54.356;10.100;2023-02-28T10:34:44;3.05;;;1.83;;
58842;SDS011;44614;54.356;10.100;2023-02-28T10:37:16;4.15;;;1.67;;
58842;SDS011;44614;54.356;10.100;2023-02-28T10:39:42;4.78;;;1.98;;
58842;SDS011;44614;54.356;10.100;2023-02-28T10:42:23;3.55;;;1.58;;
58842;SDS011;44614;54.356;10.100;2023-02-28T10:45:12;2.20;;;1.17;;
58842;SDS011;44614;54.356;10.100;2023-02-28T10:48:00;4.57;;;1.77;;
58842;SDS011;44614;54.356;10.100;2023-02-28T10:50:44;2.13;;;1.40;;
58842;SDS011;44614;54.356;10.100;2023-02-28T10:56:03;5.53;;;1.53;;
58842;SDS011;44614;54.356;10.100;2023-02-28T10:58:30;2.40;;;1.60;;
58842;SDS011;44614;54.356;10.100;2023-02-28T11:01:08;2.80;;;2.03;;
58842;SDS011;44614;54.356;10.100;2023-02-28T11:03:39;4.97;;;2.05;;
58842;SDS011;44614;54.356;10.100;2023-02-28T11:09:01;4.90;;;1.75;;
58842;SDS011;44614;54.356;10.100;2023-02-28T11:11:31;3.47;;;1.13;;
58842;SDS011;44614;54.356;10.100;2023-02-28T11:14:14;4.78;;;1.73;;
58842;SDS011;44614;54.356;10.100;2023-02-28T11:16:44;3.73;;;1.40;;
58842;SDS011;44614;54.356;10.100;2023-02-28T11:19:16;5.53;;;2.00;;
58842;SDS011;44614;54.356;10.100;2023-02-28T11:21:58;8.27;;;1.95;;
58842;SDS011;44614;54.356;10.100;2023-02-28T11:26:59;4.15;;;1.55;;
58842;SDS011;44614;54.356;10.100;2023-02-28T11:32:01;4.45;;;1.38;;
58842;SDS011;44614;54.356;10.100;2023-02-28T11:34:27;4.90;;;1.45;;
58842;SDS011;44614;54.356;10.100;2023-02-28T11:36:54;2.93;;;1.67;;
58842;SDS011;44614;54.356;10.100;2023-02-28T11:39:21;5.57;;;1.80;;
58842;SDS011;44614;54.356;10.100;2023-02-28T11:47:28;2.95;;;1.35;;
58842;SDS011;44614;54.356;10.100;2023-02-28T11:52:56;3.60;;;1.42;;
58842;SDS011;44614;54.356;10.100;2023-02-28T11:55:32;5.35;;;1.88;;
58842;SDS011;44614;54.356;10.100;2023-02-28T11:58:13;3.55;;;1.80;;
58842;SDS011;44614;54.356;10.100;2023-02-28T12:11:14;2.92;;;1.23;;
58842;SDS011;44614;54.356;10.100;2023-02-28T12:13:44;3.00;;;1.42;;
58842;SDS011;44614;54.356;10.100;2023-02-28T12:16:29;2.13;;;1.05;;
58842;SDS011;44614;54.356;10.100;2023-02-28T12:19:19;4.70;;;1.50;;
58842;SDS011;44614;54.356;10.100;2023-02-28T12:22:53;2.15;;;1.00;;
58842;SDS011;44614;54.356;10.100;2023-02-28T12:27:16;1.40;;;1.13;;
58842;SDS011;44614;54.356;10.100;2023-02-28T12:29:58;1.98;;;1.33;;
58842;SDS011;44614;54.356;10.100;2023-02-28T12:32:38;3.10;;;1.55;;
58842;SDS011;44614;54.356;10.100;2023-02-28T12:40:28;1.63;;;0.90;;
58842;SDS011;44614;54.356;10.100;2023-02-28T12:43:07;2.72;;;1.52;;
58842;SDS011;44614;54.356;10.100;2023-02-28T12:48:05;1.90;;;0.90;;
58842;SDS011;44614;54.356;10.100;2023-02-28T12:50:35;5.28;;;1.13;;
58842;SDS011;44614;54.356;10.100;2023-02-28T12:53:06;1.05;;;0.82;;
58842;SDS011;44614;54.356;10.100;2023-02-28T13:09:11;2.03;;;1.00;;
58842;SDS011;44614;54.356;10.100;2023-02-28T13:11:46;1.90;;;1.20;;
58842;SDS011;44614;54.356;10.100;2023-02-28T13:19:40;2.67;;;1.08;;
58842;SDS011;44614;54.356;10.100;2023-02-28T13:22:17;2.35;;;1.00;;
58842;SDS011;44614;54.356;10.100;2023-02-28T13:24:46;1.45;;;0.98;;
58842;SDS011;44614;54.356;10.100;2023-02-28T13:27:23;1.33;;;0.68;;
58842;SDS011;44614;54.356;10.100;2023-02-28T13:29:57;2.30;;;1.02;;
58842;SDS011;44614;54.356;10.100;2023-02-28T13:39:45;1.73;;;1.15;;
58842;SDS011;44614;54.356;10.100;2023-02-28T13:47:30;2.90;;;1.20;;
58842;SDS011;44614;54.356;10.100;2023-02-28T13:58:08;3.45;;;1.17;;
58842;SDS011;44614;54.356;10.100;2023-02-28T14:03:45;1.23;;;1.13;;
58842;SDS011;44614;54.356;10.100;2023-02-28T14:06:29;1.15;;;0.80;;
58842;SDS011;44614;54.356;10.100;2023-02-28T14:09:05;3.13;;;1.40;;
58842;SDS011;44614;54.356;10.100;2023-02-28T14:11:50;2.28;;;0.77;;
58842;SDS011;44614;54.356;10.100;2023-02-28T14:16:59;0.80;;;0.60;;
58842;SDS011;44614;54.356;10.100;2023-02-28T14:19:27;1.25;;;1.15;;
58842;SDS011;44614;54.356;10.100;2023-02-28T14:27:03;1.67;;;0.55;;
58842;SDS011;44614;54.356;10.100;2023-02-28T14:29:38;1.58;;;0.73;;
58842;SDS011;44614;54.356;10.100;2023-02-28T14:32:35;2.22;;;0.85;;
58842;SDS011;44614;54.356;10.100;2023-02-28T14:38:04;2.72;;;0.90;;
58842;SDS011;44614;54.356;10.100;2023-02-28T14:40:33;2.13;;;1.60;;
58842;SDS011;44614;54.356;10.100;2023-02-28T14:43:01;1.88;;;0.90;;
58842;SDS011;44614;54.356;10.100;2023-02-28T14:45:31;1.33;;;1.00;;
58842;SDS011;44614;54.356;10.100;2023-02-28T14:47:59;2.20;;;1.00;;
58842;SDS011;44614;54.356;10.100;2023-02-28T14:50:27;2.17;;;0.68;;
58842;SDS011;44614;54.356;10.100;2023-02-28T14:52:55;3.20;;;1.05;;
58842;SDS011;44614;54.356;10.100;2023-02-28T14:55:24;3.47;;;1.50;;
58842;SDS011;44614;54.356;10.100;2023-02-28T14:57:54;3.35;;;0.80;;
58842;SDS011;44614;54.356;10.100;2023-02-28T15:00:31;5.63;;;1.55;;
58842;SDS011;44614;54.356;10.100;2023-02-28T15:02:58;4.18;;;1.58;;
58842;SDS011;44614;54.356;10.100;2023-02-28T15:08:02;3.77;;;1.90;;
58842;SDS011;44614;54.356;10.100;2023-02-28T15:10:54;4.13;;;1.33;;
58842;SDS011;44614;54.356;10.100;2023-02-28T15:13:23;2.45;;;1.40;;
58842;SDS011;44614;54.356;10.100;2023-02-28T15:15:55;3.50;;;2.28;;
58842;SDS011;44614;54.356;10.100;2023-02-28T15:18:29;2.95;;;1.13;;
58842;SDS011;44614;54.356;10.100;2023-02-28T15:21:16;7.30;;;6.68;;
58842;SDS011;44614;54.356;10.100;2023-02-28T15:23:53;4.22;;;1.42;;
58842;SDS011;44614;54.356;10.100;2023-02-28T15:26:25;4.93;;;1.77;;
58842;SDS011;44614;54.356;10.100;2023-02-28T15:29:03;3.35;;;1.65;;
58842;SDS011;44614;54.356;10.100;2023-02-28T15:31:32;4.10;;;1.77;;
58842;SDS011;44614;54.356;10.100;2023-02-28T15:34:04;4.13;;;1.60;;
58842;SDS011;44614;54.356;10.100;2023-02-28T15:36:32;2.67;;;1.40;;
58842;SDS011;44614;54.356;10.100;2023-02-28T15:39:02;5.55;;;1.92;;
58842;SDS011;44614;54.356;10.100;2023-02-28T15:41:43;3.40;;;1.65;;
58842;SDS011;44614;54.356;10.100;2023-02-28T15:46:57;2.45;;;1.38;;
58842;SDS011;44614;54.356;10.100;2023-02-28T15:49:45;3.20;;;1.65;;
58842;SDS011;44614;54.356;10.100;2023-02-28T15:52:17;8.43;;;2.28;;
58842;SDS011;44614;54.356;10.100;2023-02-28T15:54:46;2.50;;;1.48;;
58842;SDS011;44614;54.356;10.100;2023-02-28T15:57:13;3.20;;;1.70;;
58842;SDS011;44614;54.356;10.100;2023-02-28T15:59:52;2.55;;;1.40;;
58842;SDS011;44614;54.356;10.100;2023-02-28T16:02:31;5.43;;;1.52;;
58842;SDS011;44614;54.356;10.100;2023-02-28T16:04:58;8.40;;;1.83;;
58842;SDS011;44614;54.356;10.100;2023-02-28T16:09:49;4.97;;;1.65;;
58842;SDS011;44614;54.356;10.100;2023-02-28T16:12:15;3.90;;;1.38;;
58842;SDS011;44614;54.356;10.100;2023-02-28T16:14:41;3.67;;;1.83;;
58842;SDS011;44614;54.356;10.100;2023-02-28T16:17:09;3.40;;;1.43;;
58842;SDS011;44614;54.356;10.100;2023-02-28T16:19:43;4.13;;;1.77;;
58842;SDS011;44614;54.356;10.100;2023-02-28T16:22:09;2.90;;;1.45;;
58842;SDS011;44614;54.356;10.100;2023-02-28T16:24:34;1.60;;;1.40;;
58842;SDS011;44614;54.356;10.100;2023-02-28T16:27:00;2.83;;;1.38;;
58842;SDS011;44614;54.356;10.100;2023-02-28T16:29:28;4.35;;;1.50;;
58842;SDS011;44614;54.356;10.100;2023-02-28T16:31:57;2.75;;;1.13;;
58842;SDS011;44614;54.356;10.100;2023-02-28T16:34:23;8.65;;;1.75;;
58842;SDS011;44614;54.356;10.100;2023-02-28T16:36:49;7.45;;;2.10;;
58842;SDS011;44614;54.356;10.100;2023-02-28T16:39:15;2.27;;;1.20;;
58842;SDS011;44614;54.356;10.100;2023-02-28T16:41:44;2.00;;;1.20;;
58842;SDS011;44614;54.356;10.100;2023-02-28T16:44:12;1.67;;;1.00;;
58842;SDS011;44614;54.356;10.100;2023-02-28T16:46:45;2.83;;;1.10;;
58842;SDS011;44614;54.356;10.100;2023-02-28T16:49:11;7.40;;;1.90;;
58842;SDS011;44614;54.356;10.100;2023-02-28T16:51:37;2.90;;;1.63;;
58842;SDS011;44614;54.356;10.100;2023-02-28T16:54:02;2.42;;;1.30;;
58842;SDS011;44614;54.356;10.100;2023-02-28T16:56:28;2.95;;;1.60;;
58842;SDS011;44614;54.356;10.100;2023-02-28T16:58:54;4.15;;;1.63;;
58842;SDS011;44614;54.356;10.100;2023-02-28T17:01:24;4.95;;;1.75;;
58842;SDS011;44614;54.356;10.100;2023-02-28T17:03:50;2.72;;;1.50;;
58842;SDS011;44614;54.356;10.100;2023-02-28T17:06:33;2.17;;;1.52;;
58842;SDS011;44614;54.356;10.100;2023-02-28T17:08:59;5.00;;;2.03;;
58842;SDS011;44614;54.356;10.100;2023-02-28T17:11:24;6.05;;;2.10;;
58842;SDS011;44614;54.356;10.100;2023-02-28T17:13:50;1.73;;;1.10;;
58842;SDS011;44614;54.356;10.100;2023-02-28T17:16:31;5.05;;;2.00;;
58842;SDS011;44614;54.356;10.100;2023-02-28T17:18:59;4.35;;;1.42;;
58842;SDS011;44614;54.356;10.100;2023-02-28T17:21:26;4.32;;;1.75;;
58842;SDS011;44614;54.356;10.100;2023-02-28T17:23:51;3.85;;;2.03;;
58842;SDS011;44614;54.356;10.100;2023-02-28T17:26:17;6.65;;;2.45;;
58842;SDS011;44614;54.356;10.100;2023-02-28T17:28:47;3.53;;;1.75;;
58842;SDS011;44614;54.356;10.100;2023-02-28T17:31:13;4.77;;;2.33;;
58842;SDS011;44614;54.356;10.100;2023-02-28T17:33:39;4.53;;;2.05;;